Terminal Aerodrome Forecast
Issued by NWS

Home | Current Version | Previous Version | Text Only | Print | Product List | Glossary On
Versions: 1 2 3 4 5 6 7 8 9 10 11 12 13 14 15 16 17 18 19 20
000
FTUS43 KILX 202300
TAFDEC
TAF
KDEC 202340Z 2100/2124 21006KT P6SM BKN250
     FM210900 20006KT 5SM BR SCT120 BKN250
     FM211400 22009KT P6SM SCT050 BKN250
     FM212100 21012KT P6SM SCT060=

USA.gov is the U.S. government's official web portal to all federal, state and local government web resources and services.